Santa Maria, CA

5:12 PM PST on December 24, 2014 (GMT -0800)
Harp Springs | Change Station
CLOSE
Current Station
Personal Weather Station
Location: Santa Maria, CA
Elevation: 466 ft
Nearby Weather Stations
Active Advisory: High Surf Advisory, Wind Advisory

Elev 466 ft 34.86 °N, 120.41 °W | Updated 7 minutes ago

Partly Cloudy
Partly Cloudy
57.9 °F
Feels Like 57.9 °F
N
6.8
Wind Variable Wind from WSW

Today
High -- | Low -- °F
--% Chance of Precip.
Yesterday
High -- | Low -- °F
Precip. -- in
7:06 AM 4:55 PM
Waxing Crescent, 12% visible
Pressure 29.98 in
Visibility 10.0 miles
Clouds Scattered Clouds 1100 ft
Mostly Cloudy 2200 ft
Dew Point 52 °F
Humidity 82%
Rainfall 0.00 in
Snow Depth Not available.
UV 0 out of 12
Pollen 4.80 out of 12
Air Quality Not available.
Flu Activity Not available.
METAR KSMX 250051Z 30011KT 10SM SCT011 BKN022 16/12 A2997 RMK AO2 RAB35E45 SLP151 P0000 T01610122

More Conditions Fewer Conditions

Pressure 29.98 in
Visibility 10.0 miles
Clouds Scattered Clouds 1100 ft
Mostly Cloudy 2200 ft
Dew Point 52 °F
Humidity 82%
Rainfall 0.00 in
Snow Depth Not available.
UV 0 out of 12
Pollen 4.80 out of 12
Air Quality Not available.
Flu Activity Not available.
METAR KSMX 250051Z 30011KT 10SM SCT011 BKN022 16/12 A2997 RMK AO2 RAB35E45 SLP151 P0000 T01610122

More Conditions Fewer Conditions

10-Day Weather Forecast

Almanac

Astronomy

Dec. 24, 2014 Rise Set
Actual Time
Civil Twilight
Nautical Twilight
Astronomical Twilight
Moon
Length of Visible Light
Length of Day
Tomorrow will be .
, % of the Moon is Illuminated

Today's Extremes

State Highs State Lows

Community

WunderPhotos

Upload Photos

1,780,203 photos uploaded!

WunderBlogs® & News

Nearby

Air Quality

  Air Quality AQ Index Pollutant
Not available.

Snow Depth

Station Depth Elevation

Earthquake Activity

City Distance Mag. Time & Date
Minimum magnitude displayed is 2.5.

Coastal Water Temperatures

Place Temperature

Nearby Weather Stations